createdAt,value
2019-03-20T00:00:05.929Z,3.40
2019-03-20T00:01:07.839Z,5.60
2019-03-20T00:02:05.931Z,2.40
2019-03-20T00:03:05.904Z,3.90
2019-03-20T00:04:05.888Z,4.50
2019-03-20T00:05:05.876Z,4.20
2019-03-20T00:06:05.867Z,2.40
2019-03-20T00:07:05.880Z,4.30
2019-03-20T00:08:05.873Z,4.80
2019-03-20T00:09:05.836Z,4.10
2019-03-20T00:10:05.822Z,5.40
2019-03-20T00:11:05.811Z,7.00
2019-03-20T00:12:05.809Z,4.80
2019-03-20T00:13:05.827Z,3.30
2019-03-20T00:14:05.796Z,5.10
2019-03-20T00:15:05.774Z,4.30
2019-03-20T00:16:05.766Z,3.00
2019-03-20T00:17:05.749Z,3.40
2019-03-20T00:18:05.741Z,3.10
2019-03-20T00:19:05.762Z,5.20
2019-03-20T00:20:05.719Z,6.50
2019-03-20T00:21:05.738Z,3.80
2019-03-20T00:22:05.700Z,4.90
2019-03-20T00:23:05.690Z,3.50
2019-03-20T00:24:05.696Z,3.60
2019-03-20T00:25:05.742Z,4.50
2019-03-20T00:26:05.654Z,4.40
2019-03-20T00:27:05.661Z,3.00
2019-03-20T00:28:05.653Z,2.60
2019-03-20T00:29:05.645Z,5.90
2019-03-20T00:30:05.614Z,2.80
2019-03-20T00:31:05.605Z,2.90
2019-03-20T00:32:05.593Z,5.80
2019-03-20T00:33:05.586Z,1.60
2019-03-20T00:34:05.601Z,2.90
2019-03-20T00:35:05.567Z,5.70
2019-03-20T00:36:05.551Z,3.70
2019-03-20T00:37:05.545Z,5.30
2019-03-20T00:38:05.532Z,10.40
2019-03-20T00:39:05.520Z,15.20
2019-03-20T00:40:05.541Z,15.40
2019-03-20T00:41:05.498Z,8.00
2019-03-20T00:42:05.494Z,1.70
2019-03-20T00:43:05.485Z,4.50
2019-03-20T00:44:05.467Z,4.50
2019-03-20T00:45:05.460Z,2.80
2019-03-20T00:46:05.470Z,4.20
2019-03-20T00:47:05.435Z,3.00
2019-03-20T00:48:05.426Z,4.00
2019-03-20T00:49:05.414Z,7.00
2019-03-20T00:50:05.404Z,5.30
2019-03-20T00:51:05.416Z,4.40
2019-03-20T00:52:05.393Z,2.90
2019-03-20T00:53:05.374Z,3.60
2019-03-20T00:54:05.362Z,4.20
2019-03-20T00:55:05.351Z,3.60
2019-03-20T00:56:05.360Z,4.20
2019-03-20T00:57:05.330Z,3.00
2019-03-20T00:58:05.324Z,5.20
2019-03-20T00:59:05.307Z,5.30
2019-03-20T01:00:05.297Z,3.70
2019-03-20T01:01:05.318Z,2.80
2019-03-20T01:02:05.276Z,2.10
2019-03-20T01:03:05.269Z,4.90
2019-03-20T01:04:05.255Z,4.40
2019-03-20T01:05:12.456Z,5.30
2019-03-20T01:06:06.254Z,4.30
2019-03-20T01:07:05.223Z,3.60
2019-03-20T01:08:05.249Z,5.50
2019-03-20T01:09:05.204Z,5.60
2019-03-20T01:10:05.199Z,5.50
2019-03-20T01:11:05.182Z,4.70
2019-03-20T01:12:05.226Z,4.80
2019-03-20T01:13:05.162Z,3.90
2019-03-20T01:14:05.152Z,4.90
2019-03-20T01:15:05.144Z,5.10
2019-03-20T01:16:05.150Z,4.40
2019-03-20T01:17:05.144Z,4.60
2019-03-20T01:18:05.108Z,4.40
2019-03-20T01:19:05.140Z,4.10
2019-03-20T01:20:05.090Z,4.90
2019-03-20T01:21:05.083Z,4.20
2019-03-20T01:22:05.106Z,2.60
2019-03-20T01:23:05.059Z,5.60
2019-03-20T01:24:05.045Z,6.90
2019-03-20T01:25:05.068Z,4.20
2019-03-20T01:26:05.024Z,3.40
2019-03-20T01:27:05.013Z,2.60
2019-03-20T01:28:05.025Z,3.50
2019-03-20T01:29:04.995Z,3.30
2019-03-20T01:30:04.980Z,4.30
2019-03-20T01:31:04.997Z,6.60
2019-03-20T01:32:04.965Z,3.20
2019-03-20T01:33:04.951Z,3.40
2019-03-20T01:34:04.945Z,2.90
2019-03-20T01:35:04.934Z,3.80
2019-03-20T01:36:04.940Z,3.80
2019-03-20T01:37:04.913Z,3.20
2019-03-20T01:38:04.900Z,2.10
2019-03-20T01:39:04.923Z,4.00
2019-03-20T01:40:04.882Z,3.10
2019-03-20T01:41:04.869Z,5.10
2019-03-20T01:42:04.890Z,11.10
2019-03-20T01:43:04.880Z,4.10
2019-03-20T01:44:04.836Z,2.80
2019-03-20T01:45:04.854Z,4.90
2019-03-20T01:46:04.815Z,6.40
2019-03-20T01:47:06.828Z,5.00
2019-03-20T01:48:04.823Z,2.10
2019-03-20T01:49:04.785Z,4.30
2019-03-20T01:50:04.778Z,4.20
2019-03-20T01:51:04.764Z,5.00
2019-03-20T01:52:04.753Z,4.10
2019-03-20T01:53:04.835Z,2.30
2019-03-20T01:54:04.729Z,5.80
2019-03-20T01:55:04.718Z,6.00
2019-03-20T01:56:04.708Z,5.00
2019-03-20T01:57:04.770Z,1.90
2019-03-20T01:58:04.685Z,3.90
2019-03-20T01:59:04.701Z,5.10
2019-03-20T02:00:04.671Z,2.40
2019-03-20T02:01:04.654Z,4.00
2019-03-20T02:02:04.656Z,3.60
2019-03-20T02:03:04.640Z,3.70
2019-03-20T02:04:04.663Z,2.70
2019-03-20T02:05:04.616Z,5.90
2019-03-20T02:06:04.606Z,4.00
2019-03-20T02:07:04.592Z,3.70
2019-03-20T02:08:04.594Z,4.00
2019-03-20T02:09:04.575Z,5.80
2019-03-20T02:10:04.587Z,4.90
2019-03-20T02:11:04.556Z,1.90
2019-03-20T02:12:04.543Z,1.70
2019-03-20T02:13:04.537Z,4.10
2019-03-20T02:14:04.520Z,5.40
2019-03-20T02:15:04.534Z,3.80
2019-03-20T02:16:04.512Z,3.30
2019-03-20T02:17:04.492Z,3.00
2019-03-20T02:18:04.480Z,2.50
2019-03-20T02:19:04.464Z,4.20
2019-03-20T02:20:04.482Z,3.60
2019-03-20T02:21:04.449Z,5.80
2019-03-20T02:22:04.439Z,3.20
2019-03-20T02:23:04.426Z,3.30
2019-03-20T02:24:04.421Z,2.30
2019-03-20T02:25:04.426Z,3.40
2019-03-20T02:26:04.394Z,5.30
2019-03-20T02:27:04.379Z,8.00
2019-03-20T02:28:04.378Z,4.90
2019-03-20T02:29:04.364Z,3.60
2019-03-20T02:30:04.391Z,1.70
2019-03-20T02:31:04.351Z,2.10
2019-03-20T02:32:04.332Z,4.70
2019-03-20T02:33:04.334Z,2.80
2019-03-20T02:34:04.322Z,4.20
2019-03-20T02:35:04.303Z,2.30
2019-03-20T02:36:04.317Z,2.50
2019-03-20T02:37:04.279Z,4.00
2019-03-20T02:38:04.262Z,4.00
2019-03-20T02:39:04.251Z,5.40
2019-03-20T02:40:04.247Z,3.90
2019-03-20T02:41:04.240Z,4.80
2019-03-20T02:42:04.255Z,4.20
2019-03-20T02:43:04.216Z,2.90
2019-03-20T02:44:04.202Z,3.00
2019-03-20T02:45:04.189Z,8.20
2019-03-20T02:46:04.213Z,8.20
2019-03-20T02:47:04.192Z,4.80
2019-03-20T02:48:04.176Z,3.90
2019-03-20T02:49:04.157Z,6.00
2019-03-20T02:50:04.146Z,1.90
2019-03-20T02:51:04.144Z,3.90
2019-03-20T02:52:04.386Z,4.20
2019-03-20T02:53:04.112Z,6.10
2019-03-20T02:54:04.099Z,2.60
2019-03-20T02:55:04.089Z,4.00
2019-03-20T02:56:04.071Z,5.40
2019-03-20T02:57:04.092Z,3.60
2019-03-20T02:58:04.054Z,2.80
2019-03-20T02:59:04.046Z,2.90
2019-03-20T03:00:04.044Z,3.90
2019-03-20T03:01:04.024Z,2.80
2019-03-20T03:02:04.019Z,2.50
2019-03-20T03:03:04.028Z,4.60
2019-03-20T03:04:04.045Z,3.30
2019-03-20T03:05:03.978Z,5.20
2019-03-20T03:06:06.987Z,2.50
2019-03-20T03:07:03.983Z,2.90
2019-03-20T03:08:03.985Z,2.50
2019-03-20T03:09:03.934Z,2.70
2019-03-20T03:10:03.926Z,3.20
2019-03-20T03:11:03.913Z,4.00
2019-03-20T03:12:03.915Z,4.40
2019-03-20T03:13:03.906Z,2.80
2019-03-20T03:14:03.910Z,2.60
2019-03-20T03:15:03.878Z,3.60
2019-03-20T03:16:03.870Z,2.60
2019-03-20T03:17:03.881Z,2.20
2019-03-20T03:18:03.840Z,2.40
2019-03-20T03:19:03.836Z,3.40
2019-03-20T03:20:03.823Z,2.90
2019-03-20T03:21:03.812Z,4.10
2019-03-20T03:22:03.800Z,4.80
2019-03-20T03:23:03.822Z,3.30
2019-03-20T03:24:03.782Z,4.90
2019-03-20T03:25:03.780Z,5.80
2019-03-20T03:26:03.761Z,2.80
2019-03-20T03:27:03.758Z,5.10
2019-03-20T03:28:03.751Z,3.90
2019-03-20T03:29:03.755Z,2.70
2019-03-20T03:30:03.711Z,3.10
2019-03-20T03:31:03.740Z,2.40
2019-03-20T03:32:03.698Z,2.90
2019-03-20T03:33:03.712Z,4.20
2019-03-20T03:34:03.774Z,3.70
2019-03-20T03:35:03.708Z,4.70
2019-03-20T03:36:03.660Z,3.70
2019-03-20T03:37:03.668Z,3.00
2019-03-20T03:38:03.633Z,2.30
2019-03-20T03:39:03.647Z,2.90
2019-03-20T03:40:03.612Z,5.80
2019-03-20T03:41:03.595Z,5.40
2019-03-20T03:42:03.615Z,4.80
2019-03-20T03:43:03.582Z,5.80
2019-03-20T03:44:03.609Z,3.90
2019-03-20T03:45:03.565Z,3.70
2019-03-20T03:46:03.547Z,4.60
2019-03-20T03:47:03.538Z,2.40
2019-03-20T03:48:03.549Z,3.60
2019-03-20T03:49:03.511Z,2.80
2019-03-20T03:50:03.508Z,6.80
2019-03-20T03:51:03.520Z,2.70
2019-03-20T03:52:03.486Z,3.80
2019-03-20T03:53:03.481Z,3.60
2019-03-20T03:54:03.468Z,3.60
2019-03-20T03:55:03.443Z,6.80
2019-03-20T03:56:03.439Z,2.30
2019-03-20T03:57:03.458Z,1.80
2019-03-20T03:58:03.424Z,4.00
2019-03-20T03:59:04.293Z,3.70
2019-03-20T04:00:03.411Z,7.10
2019-03-20T04:01:03.397Z,2.70
2019-03-20T04:02:03.396Z,1.90
2019-03-20T04:03:03.410Z,3.40
2019-03-20T04:04:03.363Z,6.20
2019-03-20T04:05:03.371Z,3.30
2019-03-20T04:06:03.335Z,5.60
2019-03-20T04:07:03.353Z,4.60
2019-03-20T04:08:03.309Z,5.60
2019-03-20T04:09:03.302Z,2.10
2019-03-20T04:10:03.638Z,3.00
2019-03-20T04:11:03.289Z,2.60
2019-03-20T04:12:03.265Z,3.30
2019-03-20T04:13:03.283Z,4.40
2019-03-20T04:14:03.243Z,5.20
2019-03-20T04:15:03.235Z,5.10
2019-03-20T04:16:03.230Z,2.60
2019-03-20T04:17:03.222Z,1.70
2019-03-20T04:18:03.217Z,2.90
2019-03-20T04:19:03.217Z,3.90
2019-03-20T04:20:03.189Z,3.60
2019-03-20T04:21:03.260Z,1.40
2019-03-20T04:22:03.193Z,2.00
2019-03-20T04:23:03.180Z,4.50
2019-03-20T04:24:03.144Z,4.90
2019-03-20T04:25:03.133Z,3.00
2019-03-20T04:26:03.118Z,3.10
2019-03-20T04:27:03.111Z,4.90
2019-03-20T04:28:03.111Z,4.30
2019-03-20T04:29:03.137Z,3.70
2019-03-20T04:30:03.080Z,4.90
2019-03-20T04:31:03.068Z,3.50
2019-03-20T04:32:03.052Z,4.10
2019-03-20T04:33:03.045Z,3.30
2019-03-20T04:34:03.029Z,3.50
2019-03-20T04:35:03.050Z,6.20
2019-03-20T04:36:03.016Z,4.10
2019-03-20T04:37:03.005Z,2.10
2019-03-20T04:38:03.006Z,1.60
2019-03-20T04:39:02.988Z,3.40
2019-03-20T04:40:02.969Z,2.10
2019-03-20T04:41:02.979Z,6.00
2019-03-20T04:42:02.970Z,4.40
2019-03-20T04:43:02.945Z,5.20
2019-03-20T04:44:02.923Z,3.60
2019-03-20T04:45:02.916Z,2.20
2019-03-20T04:46:02.929Z,4.80
2019-03-20T04:47:02.894Z,7.70
2019-03-20T04:48:02.891Z,2.70
2019-03-20T04:49:02.875Z,4.00
2019-03-20T04:50:02.869Z,3.60
2019-03-20T04:51:02.887Z,1.60
2019-03-20T04:52:02.838Z,4.50
2019-03-20T04:53:02.832Z,6.50
2019-03-20T04:54:02.822Z,3.00
2019-03-20T04:55:02.809Z,5.40
2019-03-20T04:56:02.805Z,4.00
2019-03-20T04:57:02.825Z,2.30
2019-03-20T04:58:02.776Z,5.00
2019-03-20T04:59:03.025Z,5.20
2019-03-20T05:00:02.763Z,3.10
2019-03-20T05:01:02.799Z,2.70
2019-03-20T05:02:02.741Z,5.70
2019-03-20T05:03:02.766Z,4.00
2019-03-20T05:04:02.714Z,7.40
2019-03-20T05:05:02.703Z,2.50
2019-03-20T05:06:02.695Z,2.50
2019-03-20T05:07:03.290Z,3.80
2019-03-20T05:08:02.698Z,4.80
2019-03-20T05:09:02.670Z,2.70
2019-03-20T05:10:02.656Z,3.50
2019-03-20T05:11:02.645Z,2.10
2019-03-20T05:12:02.628Z,4.70
2019-03-20T05:13:02.638Z,3.30
2019-03-20T05:14:02.632Z,3.40
2019-03-20T05:15:02.602Z,4.00
2019-03-20T05:16:02.590Z,4.10
2019-03-20T05:17:02.576Z,3.80
2019-03-20T05:18:02.565Z,4.90
2019-03-20T05:19:02.577Z,3.00
2019-03-20T05:20:02.558Z,4.90
2019-03-20T05:21:02.564Z,4.50
2019-03-20T05:22:02.529Z,3.70
2019-03-20T05:23:02.518Z,3.50
2019-03-20T05:24:02.502Z,3.90
2019-03-20T05:25:02.492Z,5.30
2019-03-20T05:26:02.514Z,4.90
2019-03-20T05:27:02.489Z,2.20
2019-03-20T05:28:02.478Z,4.80
2019-03-20T05:29:02.457Z,4.20
2019-03-20T05:30:02.440Z,3.10
2019-03-20T05:31:02.429Z,3.00
2019-03-20T05:32:02.453Z,3.60
2019-03-20T05:33:02.419Z,3.90
2019-03-20T05:34:02.410Z,3.90
2019-03-20T05:35:02.393Z,3.90
2019-03-20T05:36:02.371Z,4.10
2019-03-20T05:37:10.369Z,2.50
2019-03-20T05:38:03.379Z,5.30
2019-03-20T05:39:02.354Z,4.90
2019-03-20T05:40:02.353Z,4.10
2019-03-20T05:41:02.329Z,4.00
2019-03-20T05:42:02.316Z,3.70
2019-03-20T05:43:02.326Z,4.60
2019-03-20T05:44:02.290Z,9.10
2019-03-20T05:45:02.284Z,4.10
2019-03-20T05:46:02.274Z,6.70
2019-03-20T05:47:02.269Z,3.20
2019-03-20T05:48:02.283Z,1.70
2019-03-20T05:49:02.235Z,8.10
2019-03-20T05:50:02.226Z,3.50
2019-03-20T05:51:02.215Z,6.30
2019-03-20T05:52:02.211Z,3.80
2019-03-20T05:53:02.231Z,3.30
2019-03-20T05:54:02.191Z,3.80
2019-03-20T05:55:02.179Z,3.50
2019-03-20T05:56:02.169Z,4.50
2019-03-20T05:57:02.158Z,4.30
2019-03-20T05:58:02.140Z,3.10
2019-03-20T05:59:02.335Z,2.80
2019-03-20T06:00:02.157Z,3.00
2019-03-20T06:01:02.114Z,5.20
2019-03-20T06:02:02.098Z,3.70
2019-03-20T06:03:02.096Z,2.30
2019-03-20T06:04:02.109Z,2.50
2019-03-20T06:05:02.073Z,3.60
2019-03-20T06:06:02.078Z,3.70
2019-03-20T06:07:02.057Z,3.00
2019-03-20T06:08:02.033Z,6.00
2019-03-20T06:09:02.058Z,3.40
2019-03-20T06:10:02.037Z,6.10
2019-03-20T06:11:02.029Z,4.50
2019-03-20T06:12:01.998Z,4.70
2019-03-20T06:13:01.988Z,4.60
2019-03-20T06:14:01.977Z,3.60
2019-03-20T06:15:01.989Z,4.30
2019-03-20T06:16:04.803Z,10.40
2019-03-20T06:17:01.963Z,2.30
2019-03-20T06:18:01.940Z,6.80
2019-03-20T06:19:01.929Z,3.20
2019-03-20T06:20:01.912Z,4.60
2019-03-20T06:21:01.900Z,5.70
2019-03-20T06:22:01.905Z,6.60
2019-03-20T06:23:01.874Z,5.00
2019-03-20T06:24:01.869Z,4.80
2019-03-20T06:25:01.864Z,3.10
2019-03-20T06:26:01.850Z,6.20
2019-03-20T06:27:01.870Z,6.90
2019-03-20T06:28:01.822Z,7.40
2019-03-20T06:29:01.821Z,5.20
2019-03-20T06:30:01.804Z,3.80
2019-03-20T06:31:01.792Z,5.30
2019-03-20T06:32:01.823Z,4.30
2019-03-20T06:33:01.815Z,5.10
2019-03-20T06:34:01.757Z,6.40
2019-03-20T06:35:01.747Z,5.90
2019-03-20T06:36:01.745Z,6.50
2019-03-20T06:37:01.732Z,4.80
2019-03-20T06:38:01.751Z,5.30
2019-03-20T06:39:01.757Z,2.10
2019-03-20T06:40:01.706Z,6.00
2019-03-20T06:41:01.700Z,3.10
2019-03-20T06:42:01.683Z,4.60
2019-03-20T06:43:01.694Z,5.60
2019-03-20T06:44:01.657Z,3.00
2019-03-20T06:45:01.667Z,3.90
2019-03-20T06:46:01.901Z,5.80
2019-03-20T06:47:02.219Z,3.10
2019-03-20T06:48:01.687Z,5.60
2019-03-20T06:49:01.601Z,6.20
2019-03-20T06:50:01.601Z,7.10
2019-03-20T06:51:01.586Z,3.40
2019-03-20T06:52:01.571Z,5.30
2019-03-20T06:53:01.558Z,5.60
2019-03-20T06:54:01.597Z,5.00
2019-03-20T06:55:01.612Z,4.50
2019-03-20T06:56:01.550Z,5.60
2019-03-20T06:57:01.537Z,3.60
2019-03-20T06:58:01.516Z,5.20
2019-03-20T06:59:01.520Z,4.50
2019-03-20T07:00:01.488Z,6.50
2019-03-20T07:01:01.475Z,6.00
2019-03-20T07:02:01.463Z,3.60
2019-03-20T07:03:01.471Z,5.40
2019-03-20T07:04:01.491Z,6.10
2019-03-20T07:05:01.445Z,4.80
2019-03-20T07:06:01.426Z,3.80
2019-03-20T07:07:01.410Z,6.10
2019-03-20T07:08:01.411Z,8.70
2019-03-20T07:09:01.400Z,4.90
2019-03-20T07:10:01.407Z,5.60
2019-03-20T07:11:01.377Z,6.10
2019-03-20T07:12:01.365Z,7.60
2019-03-20T07:13:01.353Z,5.70
2019-03-20T07:14:01.367Z,5.50
2019-03-20T07:15:01.335Z,7.00
2019-03-20T07:16:01.323Z,5.00
2019-03-20T07:17:01.330Z,4.80
2019-03-20T07:18:01.293Z,5.30
2019-03-20T07:19:01.313Z,7.10
2019-03-20T07:20:01.276Z,3.00
2019-03-20T07:21:01.270Z,5.40
2019-03-20T07:22:01.256Z,8.50
2019-03-20T07:23:01.240Z,5.90
2019-03-20T07:24:01.238Z,2.70
2019-03-20T07:25:01.258Z,5.70
2019-03-20T07:26:01.215Z,6.30
2019-03-20T07:27:01.201Z,4.00
2019-03-20T07:28:01.200Z,6.60
2019-03-20T07:29:01.186Z,6.90
2019-03-20T07:30:01.163Z,3.50
2019-03-20T07:31:01.240Z,4.70
2019-03-20T07:32:01.187Z,4.00
2019-03-20T07:33:01.136Z,4.40
2019-03-20T07:34:01.127Z,4.90
2019-03-20T07:35:01.152Z,2.90
2019-03-20T07:36:01.100Z,4.10
2019-03-20T07:37:01.115Z,5.20
2019-03-20T07:38:01.089Z,5.10
2019-03-20T07:39:01.078Z,3.00
2019-03-20T07:40:01.081Z,4.30
2019-03-20T07:41:01.045Z,3.00
2019-03-20T07:42:01.053Z,5.30
2019-03-20T07:43:08.891Z,3.80
2019-03-20T07:44:01.018Z,4.00
2019-03-20T07:45:01.029Z,6.10
2019-03-20T07:46:01.364Z,7.60
2019-03-20T07:47:00.985Z,5.00
2019-03-20T07:48:00.970Z,2.60
2019-03-20T07:49:00.959Z,3.50
2019-03-20T07:50:00.949Z,6.90
2019-03-20T07:51:00.937Z,3.80
2019-03-20T07:52:00.964Z,3.10
2019-03-20T07:53:00.921Z,4.20
2019-03-20T07:54:00.905Z,5.60
2019-03-20T07:55:00.894Z,8.40
2019-03-20T07:56:00.890Z,3.30
2019-03-20T07:57:00.884Z,4.30
2019-03-20T07:58:00.901Z,5.30
2019-03-20T07:59:00.866Z,4.50
2019-03-20T08:00:00.840Z,5.70
2019-03-20T08:01:00.829Z,6.20
2019-03-20T08:02:00.852Z,6.20
2019-03-20T08:03:00.810Z,5.40
2019-03-20T08:04:00.829Z,4.30
2019-03-20T08:05:00.797Z,6.50
2019-03-20T08:06:00.790Z,6.30
2019-03-20T08:07:00.773Z,4.80
2019-03-20T08:08:07.115Z,4.80
2019-03-20T08:09:01.777Z,5.90
2019-03-20T08:10:00.744Z,4.30
2019-03-20T08:11:00.731Z,6.20
2019-03-20T08:12:00.714Z,4.50
2019-03-20T08:13:00.752Z,3.60
2019-03-20T08:14:00.689Z,5.10
2019-03-20T08:15:00.710Z,3.40
2019-03-20T08:16:00.676Z,4.60
2019-03-20T08:17:00.666Z,5.00
2019-03-20T08:18:00.656Z,6.70
2019-03-20T08:19:00.682Z,4.90
2019-03-20T08:20:00.669Z,4.30
2019-03-20T08:21:00.621Z,4.90
2019-03-20T08:22:00.618Z,3.30
2019-03-20T08:23:00.598Z,3.70
2019-03-20T08:24:00.619Z,5.00
2019-03-20T08:25:00.582Z,7.10
2019-03-20T08:26:00.562Z,7.80
2019-03-20T08:27:00.559Z,6.10
2019-03-20T08:28:00.552Z,5.00
2019-03-20T08:29:00.550Z,3.10
2019-03-20T08:30:00.551Z,4.30
2019-03-20T08:31:00.515Z,6.10
2019-03-20T08:32:00.508Z,3.30
2019-03-20T08:33:00.491Z,3.50
2019-03-20T08:34:00.482Z,3.50
2019-03-20T08:35:00.507Z,5.20
2019-03-20T08:36:00.465Z,3.30
2019-03-20T08:37:02.363Z,4.50
2019-03-20T08:38:00.442Z,2.90
2019-03-20T08:39:00.432Z,5.20
2019-03-20T08:40:00.413Z,5.50
2019-03-20T08:41:00.436Z,2.10
2019-03-20T08:42:00.427Z,3.80
2019-03-20T08:43:00.413Z,6.30
2019-03-20T08:44:00.370Z,7.00
2019-03-20T08:45:00.444Z,3.90
2019-03-20T08:46:00.350Z,4.70
2019-03-20T08:47:00.337Z,5.40
2019-03-20T08:48:00.355Z,4.10
2019-03-20T08:49:00.325Z,5.40
2019-03-20T08:50:00.362Z,7.40
2019-03-20T08:51:00.335Z,5.20
2019-03-20T08:52:00.323Z,5.40
2019-03-20T08:53:00.277Z,5.60
2019-03-20T08:54:00.264Z,7.50
2019-03-20T08:55:00.344Z,5.00
2019-03-20T08:56:00.252Z,4.40
2019-03-20T08:57:00.316Z,2.50
2019-03-20T08:58:00.231Z,4.50
2019-03-20T08:59:00.217Z,5.60
2019-03-20T09:00:00.350Z,4.40
2019-03-20T09:01:00.191Z,3.80
2019-03-20T09:02:00.183Z,4.00
2019-03-20T09:03:00.194Z,6.20
2019-03-20T09:04:00.157Z,4.90
2019-03-20T09:05:00.341Z,4.50
2019-03-20T09:06:00.134Z,5.30
2019-03-20T09:07:00.125Z,3.30
2019-03-20T09:08:00.138Z,4.80
2019-03-20T09:09:00.113Z,2.70
2019-03-20T09:10:00.100Z,3.80
2019-03-20T09:11:00.093Z,2.60
2019-03-20T09:12:00.068Z,2.90
2019-03-20T09:13:00.078Z,4.70
2019-03-20T09:14:00.059Z,2.60
2019-03-20T09:15:00.055Z,3.10
2019-03-20T09:16:00.029Z,3.20
2019-03-20T09:17:00.021Z,1.70
2019-03-20T09:18:00.026Z,3.20
2019-03-20T09:18:59.996Z,1.70
2019-03-20T09:19:59.991Z,7.30
2019-03-20T09:20:59.983Z,2.50
2019-03-20T09:21:59.982Z,4.40
2019-03-20T09:22:59.980Z,2.70
2019-03-20T09:23:59.948Z,2.90
2019-03-20T09:24:59.934Z,2.10
2019-03-20T09:25:59.927Z,2.60
2019-03-20T09:26:59.917Z,4.00
2019-03-20T09:27:59.929Z,3.30
2019-03-20T09:28:59.898Z,3.40
2019-03-20T09:29:59.881Z,2.20
2019-03-20T09:30:59.875Z,4.20
2019-03-20T09:31:59.865Z,1.50
2019-03-20T09:32:59.887Z,2.00
2019-03-20T09:33:59.933Z,2.20
2019-03-20T09:34:59.836Z,2.70
2019-03-20T09:35:59.823Z,3.50
2019-03-20T09:36:59.812Z,3.20
2019-03-20T09:37:59.822Z,3.60
2019-03-20T09:38:59.789Z,3.70
2019-03-20T09:39:59.810Z,3.80
2019-03-20T09:40:59.820Z,3.10
2019-03-20T09:41:59.767Z,2.90
2019-03-20T09:42:59.762Z,2.30
2019-03-20T09:43:59.740Z,1.90
2019-03-20T09:44:59.765Z,2.90
2019-03-20T09:45:59.731Z,4.40
2019-03-20T09:46:59.731Z,5.90
2019-03-20T09:47:59.701Z,4.90
2019-03-20T09:48:59.691Z,4.20
2019-03-20T09:49:59.684Z,3.20
2019-03-20T09:50:59.701Z,4.50
2019-03-20T09:51:59.671Z,3.70
2019-03-20T09:52:59.662Z,3.60
2019-03-20T09:53:59.658Z,2.50
2019-03-20T09:54:59.639Z,4.30
2019-03-20T09:55:59.657Z,4.50
2019-03-20T09:56:59.619Z,4.20
2019-03-20T09:57:59.603Z,2.70
2019-03-20T09:58:59.595Z,4.50
2019-03-20T09:59:59.592Z,4.00
2019-03-20T10:00:59.582Z,3.40
2019-03-20T10:01:59.613Z,6.40
2019-03-20T10:02:59.556Z,5.10
2019-03-20T10:03:59.555Z,3.10
2019-03-20T10:04:59.542Z,5.80
2019-03-20T10:05:59.537Z,5.60
2019-03-20T10:06:59.547Z,4.50
2019-03-20T10:07:59.512Z,2.90
2019-03-20T10:09:01.906Z,5.00
2019-03-20T10:09:59.489Z,4.60
2019-03-20T10:10:59.485Z,4.50
2019-03-20T10:11:59.495Z,8.20
2019-03-20T10:12:59.465Z,4.20
2019-03-20T10:13:59.457Z,4.00
2019-03-20T10:14:59.450Z,5.00
2019-03-20T10:15:59.430Z,5.40
2019-03-20T10:16:59.468Z,4.60
2019-03-20T10:17:59.416Z,7.10
2019-03-20T10:18:59.406Z,4.70
2019-03-20T10:19:59.390Z,6.30
2019-03-20T10:20:59.386Z,7.40
2019-03-20T10:21:59.369Z,5.20
2019-03-20T10:22:59.381Z,7.20
2019-03-20T10:23:59.358Z,6.20
2019-03-20T10:24:59.355Z,6.00
2019-03-20T10:25:59.339Z,6.50
2019-03-20T10:26:59.331Z,7.00
2019-03-20T10:27:59.331Z,8.40
2019-03-20T10:28:59.299Z,7.70
2019-03-20T10:29:59.293Z,7.60
2019-03-20T10:30:59.282Z,8.60
2019-03-20T10:31:59.275Z,8.10
2019-03-20T10:32:59.300Z,5.40
2019-03-20T10:33:59.250Z,8.10
2019-03-20T10:34:59.238Z,6.90
2019-03-20T10:35:59.237Z,5.80
2019-03-20T10:36:59.230Z,11.10
2019-03-20T10:37:59.220Z,9.00
2019-03-20T10:39:06.515Z,7.40
2019-03-20T10:40:00.229Z,8.30
2019-03-20T10:40:59.179Z,7.60
2019-03-20T10:41:59.171Z,7.90
2019-03-20T10:42:59.171Z,13.40
2019-03-20T10:43:59.188Z,9.30
2019-03-20T10:44:59.142Z,7.50
2019-03-20T10:45:59.135Z,7.00
2019-03-20T10:46:59.212Z,6.80
2019-03-20T10:47:59.109Z,7.00
2019-03-20T10:48:59.097Z,7.90
2019-03-20T10:49:59.119Z,8.50
2019-03-20T10:50:59.080Z,8.40
2019-03-20T10:51:59.068Z,7.50
2019-03-20T10:52:59.059Z,8.60
2019-03-20T10:53:59.064Z,9.20
2019-03-20T10:54:59.032Z,6.60
2019-03-20T10:55:59.025Z,5.60
2019-03-20T10:56:59.015Z,7.40
2019-03-20T10:57:59.014Z,6.90
2019-03-20T10:58:59.024Z,7.20
2019-03-20T10:59:58.982Z,7.10
2019-03-20T11:00:58.971Z,6.00
2019-03-20T11:02:00.834Z,6.70
2019-03-20T11:02:58.951Z,8.20
2019-03-20T11:03:58.947Z,5.30
2019-03-20T11:04:58.953Z,4.30
2019-03-20T11:05:58.923Z,6.90
2019-03-20T11:06:58.906Z,5.70
2019-03-20T11:07:58.911Z,6.60
2019-03-20T11:08:58.892Z,8.10
2019-03-20T11:09:58.906Z,7.80
2019-03-20T11:10:58.876Z,7.20
2019-03-20T11:11:58.851Z,6.60
2019-03-20T11:12:58.838Z,6.20
2019-03-20T11:13:58.831Z,6.20
2019-03-20T11:14:58.842Z,6.00
2019-03-20T11:15:58.812Z,5.50
2019-03-20T11:16:58.807Z,7.00
2019-03-20T11:17:58.814Z,7.40
2019-03-20T11:18:58.787Z,8.70
2019-03-20T11:19:59.354Z,7.00
2019-03-20T11:20:58.752Z,8.90
2019-03-20T11:21:58.749Z,9.10
2019-03-20T11:22:58.757Z,6.20
2019-03-20T11:23:58.721Z,8.10
2019-03-20T11:24:58.733Z,8.40
2019-03-20T11:26:00.021Z,7.10
2019-03-20T11:26:58.689Z,11.80
2019-03-20T11:27:58.689Z,8.80
2019-03-20T11:28:58.675Z,7.70
2019-03-20T11:29:58.667Z,6.70
2019-03-20T11:30:58.676Z,9.60
2019-03-20T11:31:58.643Z,8.70
2019-03-20T11:32:58.721Z,6.20
2019-03-20T11:33:58.614Z,7.50
2019-03-20T11:34:58.605Z,6.20
2019-03-20T11:35:58.634Z,8.80
2019-03-20T11:36:58.595Z,10.20
2019-03-20T11:37:58.581Z,10.00
2019-03-20T11:38:58.562Z,8.80
2019-03-20T11:39:58.563Z,10.40
2019-03-20T11:40:58.576Z,9.60
2019-03-20T11:41:58.538Z,12.80
2019-03-20T11:42:58.526Z,8.90
2019-03-20T11:43:58.509Z,8.70
2019-03-20T11:44:58.506Z,8.60
2019-03-20T11:45:58.490Z,8.30
2019-03-20T11:46:58.512Z,10.40
2019-03-20T11:47:58.472Z,7.80
2019-03-20T11:48:58.460Z,9.70
2019-03-20T11:49:58.453Z,8.30
2019-03-20T11:50:58.444Z,10.00
2019-03-20T11:51:58.421Z,8.50
2019-03-20T11:52:58.431Z,8.60
2019-03-20T11:53:58.406Z,8.60
2019-03-20T11:54:58.424Z,8.50
2019-03-20T11:55:58.378Z,8.80
2019-03-20T11:56:58.370Z,9.40
2019-03-20T11:57:58.380Z,8.20
2019-03-20T11:58:58.356Z,9.50
2019-03-20T11:59:58.347Z,8.00
2019-03-20T12:00:58.333Z,8.50
2019-03-20T12:01:58.323Z,10.30
2019-03-20T12:02:58.336Z,8.50
2019-03-20T12:03:58.295Z,10.50
2019-03-20T12:04:58.282Z,9.40
2019-03-20T12:05:58.279Z,7.90
2019-03-20T12:06:58.267Z,8.70
2019-03-20T12:07:58.277Z,6.40
2019-03-20T12:08:58.246Z,8.40
2019-03-20T12:09:59.014Z,9.40
2019-03-20T12:10:58.660Z,8.60
2019-03-20T12:11:58.216Z,9.00
2019-03-20T12:12:58.235Z,7.50
2019-03-20T12:13:58.192Z,8.00
2019-03-20T12:14:58.183Z,7.60
2019-03-20T12:15:58.169Z,9.20
2019-03-20T12:17:07.459Z,7.00
2019-03-20T12:17:58.156Z,9.50
2019-03-20T12:18:58.176Z,5.80
2019-03-20T12:19:58.134Z,6.90
2019-03-20T12:20:58.131Z,9.10
2019-03-20T12:21:58.168Z,7.60
2019-03-20T12:22:58.092Z,8.10
2019-03-20T12:23:58.969Z,6.60
2019-03-20T12:24:58.129Z,6.40
2019-03-20T12:25:58.068Z,6.70
2019-03-20T12:26:58.057Z,7.90
2019-03-20T12:27:58.074Z,8.50
2019-03-20T12:28:59.237Z,7.40
2019-03-20T12:29:58.057Z,8.50
2019-03-20T12:30:58.022Z,7.70
2019-03-20T12:31:58.010Z,7.60
2019-03-20T12:32:57.997Z,7.30
2019-03-20T12:33:57.985Z,8.50
2019-03-20T12:34:58.001Z,8.00
2019-03-20T12:35:57.986Z,6.10
2019-03-20T12:36:57.959Z,6.50
2019-03-20T12:37:58.029Z,9.50
2019-03-20T12:38:57.930Z,9.00
2019-03-20T12:39:57.915Z,8.80
2019-03-20T12:40:57.952Z,8.70
2019-03-20T12:41:57.903Z,10.50
2019-03-20T12:42:57.894Z,8.80
2019-03-20T12:43:57.906Z,10.20
2019-03-20T12:44:57.895Z,8.40
2019-03-20T12:45:57.876Z,8.30
2019-03-20T12:46:57.847Z,11.00
2019-03-20T12:47:57.839Z,9.10
2019-03-20T12:48:59.753Z,9.60
2019-03-20T12:49:57.877Z,9.40
2019-03-20T12:50:57.860Z,14.40
2019-03-20T12:51:57.798Z,12.70
2019-03-20T12:52:57.828Z,9.70
2019-03-20T12:53:57.782Z,7.40
2019-03-20T12:54:57.750Z,8.70
2019-03-20T12:55:57.789Z,8.70
2019-03-20T12:56:57.741Z,13.60
2019-03-20T12:57:57.727Z,7.90
2019-03-20T12:58:57.726Z,9.50
2019-03-20T12:59:58.105Z,10.70
2019-03-20T13:00:57.704Z,14.00
2019-03-20T13:02:03.347Z,10.60
2019-03-20T13:02:58.488Z,10.80
2019-03-20T13:03:57.660Z,11.30
2019-03-20T13:04:57.658Z,10.10
2019-03-20T13:05:57.669Z,11.50
2019-03-20T13:06:57.623Z,12.00
2019-03-20T13:08:05.361Z,12.10
2019-03-20T13:08:58.607Z,12.20
2019-03-20T13:10:03.188Z,11.80
2019-03-20T13:10:58.615Z,9.90
2019-03-20T13:11:57.568Z,12.00
2019-03-20T13:12:57.556Z,11.50
2019-03-20T13:13:57.558Z,10.10
2019-03-20T13:14:57.554Z,10.60
2019-03-20T13:15:58.008Z,10.60
2019-03-20T13:16:57.563Z,11.40